createdAt,value
2023-02-15T00:00:42.204Z,62.88
2023-02-15T00:03:12.328Z,60.28
2023-02-15T00:05:42.753Z,61.72
2023-02-15T00:08:12.709Z,60.95
2023-02-15T00:10:42.808Z,59.47
2023-02-15T00:13:12.816Z,61.72
2023-02-15T00:15:45.432Z,60.50
2023-02-15T00:18:15.404Z,56.25
2023-02-15T00:20:45.421Z,65.65
2023-02-15T00:23:15.417Z,60.00
2023-02-15T00:25:45.439Z,59.90
2023-02-15T00:28:15.390Z,59.08
2023-02-15T00:30:48.276Z,62.88
2023-02-15T00:33:18.503Z,60.22
2023-02-15T00:35:48.614Z,68.07
2023-02-15T00:38:18.711Z,66.35
2023-02-15T00:40:56.191Z,65.75
2023-02-15T00:43:26.363Z,68.65
2023-02-15T00:45:59.239Z,62.05
2023-02-15T00:48:29.634Z,66.07
2023-02-15T00:51:02.240Z,71.25
2023-02-15T00:53:33.315Z,65.85
2023-02-15T00:56:03.699Z,68.03
2023-02-15T00:58:34.007Z,62.97
2023-02-15T01:01:12.643Z,63.45
2023-02-15T01:03:43.398Z,67.72
2023-02-15T01:06:14.469Z,66.25
2023-02-15T01:08:45.066Z,65.32
2023-02-15T01:11:23.003Z,68.35
2023-02-15T01:13:54.470Z,62.10
2023-02-15T01:16:28.758Z,62.53
2023-02-15T01:18:59.468Z,66.50
2023-02-15T01:21:30.364Z,68.78
2023-02-15T01:24:00.438Z,64.75
2023-02-15T01:26:30.538Z,61.95
2023-02-15T01:29:00.704Z,67.22
2023-02-15T01:31:33.443Z,66.45
2023-02-15T01:34:03.481Z,64.40
2023-02-15T01:36:33.474Z,63.78
2023-02-15T01:39:04.753Z,71.00
2023-02-15T01:41:34.956Z,63.53
2023-02-15T01:44:07.200Z,66.85
2023-02-15T01:46:43.656Z,68.90
2023-02-15T01:49:17.535Z,72.53
2023-02-15T01:51:53.557Z,76.43
2023-02-15T01:54:28.746Z,68.63
2023-02-15T01:57:03.493Z,77.00
2023-02-15T02:02:11.337Z,76.78
2023-02-15T02:04:49.237Z,74.95
2023-02-15T02:07:23.220Z,77.75
2023-02-15T02:09:53.774Z,74.63
2023-02-15T02:12:25.228Z,75.70
2023-02-15T02:14:56.987Z,76.50
2023-02-15T02:17:41.057Z,87.75
2023-02-15T02:20:34.612Z,76.18
2023-02-15T02:23:37.554Z,80.22
2023-02-15T02:27:02.665Z,73.35
2023-02-15T02:30:19.367Z,85.88
2023-02-15T02:33:37.297Z,89.50
2023-02-15T02:36:19.389Z,85.95
2023-02-15T02:39:06.668Z,80.55
2023-02-15T02:41:47.594Z,81.97
2023-02-15T02:44:25.234Z,85.82
2023-02-15T02:47:02.959Z,83.07
2023-02-15T02:49:42.233Z,89.82
2023-02-15T02:52:41.456Z,81.13
2023-02-15T02:55:17.347Z,80.57
2023-02-15T02:57:56.500Z,81.40
2023-02-15T03:00:31.310Z,78.57
2023-02-15T03:03:08.168Z,89.50
2023-02-15T03:05:45.589Z,86.95
2023-02-15T03:08:23.162Z,83.60
2023-02-15T03:10:58.226Z,80.00
2023-02-15T03:13:28.694Z,83.78
2023-02-15T03:16:18.875Z,80.53
2023-02-15T03:18:53.879Z,78.13
2023-02-15T03:21:34.819Z,92.68
2023-02-15T03:24:12.376Z,83.90
2023-02-15T03:26:44.082Z,94.47
2023-02-15T03:29:15.450Z,91.57
2023-02-15T03:31:50.515Z,88.80
2023-02-15T03:34:21.809Z,91.10
2023-02-15T03:37:01.314Z,84.50
2023-02-15T03:39:37.734Z,84.15
2023-02-15T03:42:17.022Z,87.20
2023-02-15T03:44:56.456Z,85.25
2023-02-15T03:47:32.465Z,88.93
2023-02-15T03:50:28.576Z,92.43
2023-02-15T03:53:03.705Z,95.13
2023-02-15T03:55:34.123Z,95.72
2023-02-15T03:58:16.812Z,87.32
2023-02-15T04:01:08.704Z,86.47
2023-02-15T04:03:43.831Z,88.43
2023-02-15T04:06:13.746Z,86.60
2023-02-15T04:08:58.775Z,89.90
2023-02-15T04:13:59.926Z,91.63
2023-02-15T04:16:28.778Z,89.38
2023-02-15T04:19:12.043Z,96.45
2023-02-15T04:21:54.454Z,91.55
2023-02-15T04:24:39.406Z,98.85
2023-02-15T04:27:09.878Z,94.72
2023-02-15T04:29:39.791Z,85.40
2023-02-15T04:32:09.712Z,93.93
2023-02-15T04:34:39.614Z,83.00
2023-02-15T04:37:09.631Z,89.53
2023-02-15T04:39:42.089Z,83.82
2023-02-15T04:42:11.985Z,93.35
2023-02-15T04:44:41.913Z,88.95
2023-02-15T04:47:11.871Z,85.55
2023-02-15T04:49:41.725Z,83.63
2023-02-15T04:52:11.654Z,93.40
2023-02-15T04:54:44.261Z,87.07
2023-02-15T04:57:14.265Z,96.10
2023-02-15T04:59:44.261Z,89.20
2023-02-15T05:02:14.141Z,82.35
2023-02-15T05:04:44.081Z,89.38
2023-02-15T05:07:14.133Z,82.93
2023-02-15T05:09:46.618Z,97.13
2023-02-15T05:12:16.541Z,91.97
2023-02-15T05:14:46.575Z,95.03
2023-02-15T05:17:16.433Z,94.53
2023-02-15T05:19:46.502Z,92.78
2023-02-15T05:22:16.395Z,87.43
2023-02-15T05:25:01.463Z,83.10
2023-02-15T05:30:16.762Z,91.15
2023-02-15T05:32:46.724Z,84.75
2023-02-15T05:35:17.941Z,90.82
2023-02-15T05:37:47.891Z,90.03
2023-02-15T05:40:20.626Z,89.30
2023-02-15T05:42:50.497Z,93.88
2023-02-15T05:45:20.715Z,92.70
2023-02-15T05:47:51.177Z,91.38
2023-02-15T05:50:21.517Z,91.93
2023-02-15T05:52:52.503Z,92.18
2023-02-15T05:55:25.138Z,90.90
2023-02-15T05:57:55.010Z,94.22
2023-02-15T06:00:26.489Z,89.90
2023-02-15T06:02:56.362Z,92.95
2023-02-15T06:05:26.286Z,100.50
2023-02-15T06:07:56.138Z,99.00
2023-02-15T06:10:28.716Z,101.50
2023-02-15T06:12:58.597Z,99.95
2023-02-15T06:15:28.522Z,105.90
2023-02-15T06:17:58.453Z,123.43
2023-02-15T06:20:28.350Z,115.93
2023-02-15T06:22:58.256Z,108.20
2023-02-15T06:25:30.743Z,120.50
2023-02-15T06:28:00.670Z,129.32
2023-02-15T06:30:30.623Z,113.57
2023-02-15T06:33:01.159Z,114.65
2023-02-15T06:35:31.147Z,116.40
2023-02-15T06:38:01.434Z,109.82
2023-02-15T06:40:33.905Z,104.18
2023-02-15T06:43:03.844Z,108.78
2023-02-15T06:45:33.817Z,115.50
2023-02-15T06:48:03.732Z,180.68
2023-02-15T06:50:33.752Z,138.02
2023-02-15T06:53:03.801Z,122.22
2023-02-15T06:55:36.284Z,167.25
2023-02-15T06:58:06.254Z,155.57
2023-02-15T07:00:36.102Z,117.43
2023-02-15T07:03:06.159Z,120.68
2023-02-15T07:05:38.412Z,126.55
2023-02-15T07:08:08.278Z,105.40
2023-02-15T07:10:40.780Z,177.10
2023-02-15T07:13:08.088Z,132.57
2023-02-15T07:15:38.004Z,104.07
2023-02-15T07:18:08.704Z,200.15
2023-02-15T07:20:38.606Z,128.77
2023-02-15T07:23:09.153Z,175.10
2023-02-15T07:25:41.758Z,206.57
2023-02-15T07:28:11.994Z,128.77
2023-02-15T07:30:41.882Z,151.65
2023-02-15T07:33:28.194Z,125.88
2023-02-15T07:36:02.238Z,123.20
2023-02-15T07:38:36.937Z,108.50
2023-02-15T07:41:12.829Z,125.35
2023-02-15T07:43:45.763Z,158.10
2023-02-15T07:46:18.991Z,227.00
2023-02-15T07:48:49.518Z,172.43
2023-02-15T07:51:19.651Z,125.22
2023-02-15T07:53:49.856Z,164.90
2023-02-15T07:56:22.690Z,116.18
2023-02-15T07:58:56.966Z,194.45
2023-02-15T08:01:29.769Z,180.15
2023-02-15T08:04:00.680Z,260.83
2023-02-15T08:06:34.627Z,130.30
2023-02-15T08:09:07.261Z,138.20
2023-02-15T08:11:43.872Z,131.07
2023-02-15T08:14:16.002Z,195.65
2023-02-15T08:16:48.687Z,137.80
2023-02-15T08:19:21.954Z,149.23
2023-02-15T08:21:54.880Z,168.60
2023-02-15T08:24:27.446Z,130.38
2023-02-15T08:27:01.025Z,214.48
2023-02-15T08:29:33.329Z,124.30
2023-02-15T08:32:06.985Z,106.00
2023-02-15T08:34:39.913Z,147.88
2023-02-15T08:37:10.393Z,109.13
2023-02-15T08:39:40.787Z,133.00
2023-02-15T08:42:13.226Z,93.78
2023-02-15T08:44:43.123Z,125.50
2023-02-15T08:47:13.057Z,137.10
2023-02-15T08:49:42.956Z,131.43
2023-02-15T08:52:12.861Z,96.93
2023-02-15T08:54:42.770Z,134.25
2023-02-15T08:57:15.247Z,102.70
2023-02-15T08:59:45.211Z,94.97
2023-02-15T09:02:15.234Z,123.10
2023-02-15T09:04:45.153Z,129.88
2023-02-15T09:07:15.074Z,103.28
2023-02-15T09:09:45.310Z,114.80
2023-02-15T09:12:17.877Z,91.95
2023-02-15T09:14:47.909Z,107.85
2023-02-15T09:17:17.945Z,131.98
2023-02-15T09:19:47.813Z,117.07
2023-02-15T09:22:17.855Z,110.63
2023-02-15T09:24:47.793Z,150.80
2023-02-15T09:27:20.513Z,108.10
2023-02-15T09:29:50.673Z,141.65
2023-02-15T09:32:20.725Z,104.30
2023-02-15T09:34:50.817Z,122.05
2023-02-15T09:37:20.836Z,183.07
2023-02-15T09:39:51.094Z,100.38
2023-02-15T09:43:04.767Z,126.88
2023-02-15T09:45:49.711Z,120.95
2023-02-15T09:48:43.253Z,107.63
2023-02-15T09:51:39.751Z,115.30
2023-02-15T09:54:36.015Z,113.53
2023-02-15T09:57:14.047Z,101.40
2023-02-15T10:00:00.224Z,116.00
2023-02-15T10:02:48.170Z,115.80
2023-02-15T10:05:31.046Z,113.03
2023-02-15T10:08:48.791Z,109.45
2023-02-15T10:11:36.552Z,113.50
2023-02-15T10:14:23.132Z,101.60
2023-02-15T10:17:08.371Z,107.60
2023-02-15T10:19:48.517Z,126.40
2023-02-15T10:22:31.459Z,95.18
2023-02-15T10:25:23.869Z,105.90
2023-02-15T10:27:54.924Z,101.30
2023-02-15T10:30:37.604Z,111.90
2023-02-15T10:33:24.596Z,107.30
2023-02-15T10:36:09.726Z,112.72
2023-02-15T10:41:35.398Z,91.88
2023-02-15T10:44:26.937Z,96.32
2023-02-15T10:47:23.029Z,100.43
2023-02-15T10:50:14.465Z,91.43
2023-02-15T10:53:02.218Z,100.00
2023-02-15T10:55:49.947Z,96.30
2023-02-15T10:58:35.071Z,97.60
2023-02-15T11:04:26.637Z,98.65
2023-02-15T11:07:03.748Z,90.30
2023-02-15T11:09:44.727Z,89.50
2023-02-15T11:12:20.052Z,88.25
2023-02-15T11:14:56.684Z,90.85
2023-02-15T11:17:32.211Z,91.90
2023-02-15T11:20:12.336Z,92.25
2023-02-15T11:22:45.199Z,91.93
2023-02-15T11:25:22.473Z,91.85
2023-02-15T11:27:53.644Z,82.38
2023-02-15T11:30:27.737Z,74.93
2023-02-15T11:33:02.949Z,80.47
2023-02-15T11:35:40.235Z,79.40
2023-02-15T11:38:22.177Z,83.05
2023-02-15T11:40:54.439Z,78.97
2023-02-15T11:43:30.173Z,74.85
2023-02-15T11:46:00.341Z,77.38
2023-02-15T11:48:33.092Z,65.38
2023-02-15T11:51:04.281Z,70.43
2023-02-15T11:53:41.777Z,72.15
2023-02-15T11:56:18.814Z,61.45
2023-02-15T11:58:53.266Z,56.08
2023-02-15T12:01:31.272Z,59.53
2023-02-15T12:04:06.868Z,63.72
2023-02-15T12:06:41.770Z,60.33
2023-02-15T12:09:25.300Z,56.53
2023-02-15T12:11:55.219Z,60.35
2023-02-15T12:14:25.183Z,55.75
2023-02-15T12:16:57.783Z,57.30
2023-02-15T12:19:37.488Z,63.50
2023-02-15T12:22:11.111Z,56.38
2023-02-15T12:24:50.510Z,56.17
2023-02-15T12:27:23.833Z,53.90
2023-02-15T12:29:56.865Z,51.70
2023-02-15T12:32:30.322Z,50.55
2023-02-15T12:35:05.647Z,54.67
2023-02-15T12:37:36.919Z,53.38
2023-02-15T12:40:26.956Z,55.17
2023-02-15T12:42:56.974Z,54.47
2023-02-15T12:45:34.728Z,48.53
2023-02-15T12:48:22.877Z,51.33
2023-02-15T12:50:56.423Z,52.08
2023-02-15T12:53:35.056Z,49.78
2023-02-15T12:56:13.485Z,49.40
2023-02-15T12:58:47.031Z,48.45
2023-02-15T13:01:22.323Z,52.65
2023-02-15T13:04:02.601Z,47.90
2023-02-15T13:06:36.156Z,47.25
2023-02-15T13:09:18.033Z,47.33
2023-02-15T13:11:50.949Z,42.78
2023-02-15T13:14:23.554Z,43.42
2023-02-15T13:16:57.286Z,45.28
2023-02-15T13:19:35.853Z,45.17
2023-02-15T13:22:10.679Z,42.80
2023-02-15T13:24:45.343Z,45.53
2023-02-15T13:27:21.930Z,42.42
2023-02-15T13:29:59.233Z,39.28
2023-02-15T13:32:34.081Z,42.22
2023-02-15T13:38:01.408Z,40.25
2023-02-15T13:40:38.975Z,38.83
2023-02-15T13:43:29.928Z,38.88
2023-02-15T13:46:13.426Z,37.92
2023-02-15T13:48:55.964Z,34.42
2023-02-15T13:51:35.947Z,35.90
2023-02-15T13:54:37.452Z,34.83
2023-02-15T13:57:32.782Z,37.22
2023-02-15T14:00:19.339Z,34.83
2023-02-15T14:03:20.451Z,33.53
2023-02-15T14:06:16.489Z,34.15
2023-02-15T14:09:05.805Z,36.35
2023-02-15T14:11:43.558Z,35.28
2023-02-15T14:14:41.110Z,30.85
2023-02-15T14:17:24.767Z,35.25
2023-02-15T14:19:58.805Z,31.85
2023-02-15T14:22:36.280Z,27.23
2023-02-15T14:25:26.866Z,25.95
2023-02-15T14:28:09.284Z,29.92
2023-02-15T14:30:43.156Z,27.15
2023-02-15T14:33:35.229Z,29.75
2023-02-15T14:36:10.278Z,26.45
2023-02-15T14:39:06.154Z,24.95
2023-02-15T14:41:42.824Z,30.67
2023-02-15T14:44:21.449Z,27.33
2023-02-15T14:47:02.344Z,27.17
2023-02-15T14:49:37.122Z,21.70
2023-02-15T14:52:11.810Z,28.40
2023-02-15T14:57:35.022Z,29.73
2023-02-15T15:00:33.368Z,29.20
2023-02-15T15:03:04.435Z,28.92
2023-02-15T15:05:39.714Z,29.90
2023-02-15T15:08:10.083Z,21.80
2023-02-15T15:10:45.804Z,31.05
2023-02-15T15:13:43.355Z,25.30
2023-02-15T15:16:54.394Z,27.33
2023-02-15T15:20:19.390Z,26.67
2023-02-15T15:22:51.913Z,27.25
2023-02-15T15:25:47.144Z,23.02
2023-02-15T15:29:00.169Z,27.90
2023-02-15T15:31:42.676Z,25.45
2023-02-15T15:34:26.830Z,24.73
2023-02-15T15:37:56.954Z,23.00
2023-02-15T15:41:13.264Z,23.15
2023-02-15T15:44:31.366Z,25.38
2023-02-15T15:47:21.349Z,25.55
2023-02-15T15:49:51.936Z,28.30
2023-02-15T15:52:25.640Z,26.50
2023-02-15T15:55:00.231Z,20.98
2023-02-15T15:57:37.134Z,28.55
2023-02-15T16:00:20.215Z,21.65
2023-02-15T16:02:54.916Z,31.67
2023-02-15T16:05:25.179Z,24.50
2023-02-15T16:07:55.115Z,25.70
2023-02-15T16:10:28.715Z,24.85
2023-02-15T16:13:01.316Z,24.67
2023-02-15T16:15:39.619Z,24.65
2023-02-15T16:18:10.251Z,28.77
2023-02-15T16:20:41.151Z,30.38
2023-02-15T16:23:30.045Z,28.33
2023-02-15T16:26:09.780Z,27.30
2023-02-15T16:28:42.537Z,25.88
2023-02-15T16:31:18.166Z,31.75
2023-02-15T16:33:48.931Z,27.65
2023-02-15T16:36:26.683Z,29.88
2023-02-15T16:39:21.635Z,39.30
2023-02-15T16:41:53.081Z,37.70
2023-02-15T16:44:26.645Z,34.15
2023-02-15T16:46:58.178Z,33.72
2023-02-15T16:49:31.799Z,42.28
2023-02-15T16:52:06.398Z,112.35
2023-02-15T16:54:37.601Z,90.18
2023-02-15T16:57:07.605Z,83.47
2023-02-15T16:59:45.100Z,72.50
2023-02-15T17:02:43.059Z,48.75
2023-02-15T17:05:22.010Z,97.85
2023-02-15T17:08:16.019Z,72.15
2023-02-15T17:10:48.943Z,71.03
2023-02-15T17:13:20.883Z,72.60
2023-02-15T17:16:27.705Z,65.43
2023-02-15T17:18:59.499Z,69.38
2023-02-15T17:21:35.235Z,62.22
2023-02-15T17:24:07.659Z,73.18
2023-02-15T17:26:40.105Z,54.53
2023-02-15T17:29:24.162Z,58.28
2023-02-15T17:31:59.542Z,54.53
2023-02-15T17:34:48.572Z,44.83
2023-02-15T17:37:30.241Z,41.53
2023-02-15T17:40:01.986Z,40.58
2023-02-15T17:42:32.003Z,47.22
2023-02-15T17:45:01.880Z,51.67
2023-02-15T17:47:34.438Z,48.47
2023-02-15T17:50:06.942Z,44.83
2023-02-15T17:52:37.011Z,46.13
2023-02-15T17:55:30.064Z,48.70
2023-02-15T17:58:00.048Z,55.30
2023-02-15T18:00:42.515Z,55.58
2023-02-15T18:03:28.729Z,57.25
2023-02-15T18:06:11.500Z,64.28
2023-02-15T18:08:53.944Z,59.33
2023-02-15T18:11:42.563Z,54.15
2023-02-15T18:14:13.759Z,51.42
2023-02-15T18:16:46.541Z,56.13
2023-02-15T18:19:25.199Z,59.53
2023-02-15T18:21:57.823Z,57.70
2023-02-15T18:24:29.467Z,52.85
2023-02-15T18:26:59.417Z,65.90
2023-02-15T18:29:29.382Z,66.05
2023-02-15T18:32:00.042Z,59.72
2023-02-15T18:34:38.233Z,65.22
2023-02-15T18:37:13.571Z,63.55
2023-02-15T18:39:46.857Z,65.07
2023-02-15T18:42:23.917Z,74.30
2023-02-15T18:44:57.582Z,83.30
2023-02-15T18:47:28.097Z,72.10
2023-02-15T18:50:00.590Z,74.50
2023-02-15T18:52:36.777Z,68.63
2023-02-15T18:55:15.864Z,75.38
2023-02-15T18:57:45.921Z,74.32
2023-02-15T19:00:21.507Z,74.68
2023-02-15T19:02:51.988Z,69.88
2023-02-15T19:05:25.453Z,73.63
2023-02-15T19:07:55.442Z,76.05
2023-02-15T19:10:28.654Z,99.50
2023-02-15T19:12:59.582Z,111.50
2023-02-15T19:15:32.883Z,109.50
2023-02-15T19:18:02.779Z,118.88
2023-02-15T19:20:39.601Z,112.75
2023-02-15T19:23:12.215Z,100.57
2023-02-15T19:25:43.950Z,90.43
2023-02-15T19:28:21.403Z,94.65
2023-02-15T19:30:51.335Z,90.07
2023-02-15T19:33:23.855Z,83.75
2023-02-15T19:35:58.982Z,90.00
2023-02-15T19:38:33.177Z,76.28
2023-02-15T19:41:07.775Z,73.47
2023-02-15T19:46:08.118Z,79.72
2023-02-15T19:48:38.026Z,76.25
2023-02-15T19:51:12.163Z,71.30
2023-02-15T19:53:42.633Z,68.03
2023-02-15T19:56:15.798Z,61.53
2023-02-15T19:58:45.696Z,60.30
2023-02-15T20:01:15.727Z,65.95
2023-02-15T20:03:45.652Z,71.40
2023-02-15T20:06:19.787Z,66.07
2023-02-15T20:08:51.165Z,63.95
2023-02-15T20:11:21.894Z,58.70
2023-02-15T20:13:52.144Z,65.18
2023-02-15T20:16:22.040Z,67.90
2023-02-15T20:18:52.021Z,70.25
2023-02-15T20:21:24.543Z,79.85
2023-02-15T20:23:54.477Z,78.82
2023-02-15T20:26:29.649Z,76.80
2023-02-15T20:28:59.770Z,78.07
2023-02-15T20:31:29.739Z,67.63
2023-02-15T20:33:59.834Z,76.88
2023-02-15T20:36:32.316Z,79.30
2023-02-15T20:39:07.212Z,78.78
2023-02-15T20:41:40.272Z,83.05
2023-02-15T20:44:23.646Z,77.53
2023-02-15T20:46:56.120Z,76.43
2023-02-15T20:49:26.709Z,78.90
2023-02-15T20:52:00.361Z,92.63
2023-02-15T20:54:35.957Z,79.07
2023-02-15T20:57:07.067Z,101.35
2023-02-15T20:59:37.821Z,101.07
2023-02-15T21:02:21.006Z,90.07
2023-02-15T21:04:51.059Z,104.85
2023-02-15T21:07:25.025Z,107.55
2023-02-15T21:09:55.109Z,110.05
2023-02-15T21:12:27.596Z,96.47
2023-02-15T21:14:57.480Z,82.63
2023-02-15T21:17:27.394Z,75.28
2023-02-15T21:19:57.280Z,86.55
2023-02-15T21:22:30.325Z,92.63
2023-02-15T21:25:01.706Z,95.68
2023-02-15T21:27:32.527Z,95.55
2023-02-15T21:30:02.526Z,88.00
2023-02-15T21:32:32.629Z,89.38
2023-02-15T21:35:02.577Z,88.07
2023-02-15T21:37:39.851Z,97.07
2023-02-15T21:40:20.409Z,93.72
2023-02-15T21:43:02.902Z,99.13
2023-02-15T21:45:45.351Z,94.63
2023-02-15T21:48:15.315Z,98.97
2023-02-15T21:50:58.089Z,108.68
2023-02-15T21:53:34.309Z,123.90
2023-02-15T21:56:07.969Z,124.60
2023-02-15T21:58:39.851Z,126.60
2023-02-15T22:01:14.367Z,118.85
2023-02-15T22:03:44.241Z,121.07
2023-02-15T22:06:16.196Z,117.35
2023-02-15T22:08:49.650Z,110.68
2023-02-15T22:11:23.533Z,101.93
2023-02-15T22:13:54.358Z,114.40
2023-02-15T22:16:25.607Z,114.60
2023-02-15T22:18:55.491Z,105.07
2023-02-15T22:21:26.637Z,119.97
2023-02-15T22:23:59.087Z,108.93
2023-02-15T22:26:30.745Z,107.22
2023-02-15T22:29:00.652Z,91.85
2023-02-15T22:31:31.476Z,89.07
2023-02-15T22:34:01.618Z,91.70
2023-02-15T22:36:33.755Z,80.35
2023-02-15T22:39:06.465Z,75.90
2023-02-15T22:41:36.380Z,80.30
2023-02-15T22:44:06.297Z,77.45
2023-02-15T22:46:38.373Z,77.70
2023-02-15T22:49:08.402Z,81.88
2023-02-15T22:51:38.265Z,78.15
2023-02-15T22:54:11.029Z,79.60
2023-02-15T22:56:45.077Z,78.63
2023-02-15T22:59:21.188Z,77.85
2023-02-15T23:01:51.773Z,71.78
2023-02-15T23:04:24.315Z,73.65
2023-02-15T23:06:55.333Z,63.60
2023-02-15T23:09:27.871Z,64.43
2023-02-15T23:11:57.863Z,64.85
2023-02-15T23:14:37.381Z,62.60
2023-02-15T23:17:07.274Z,62.60
2023-02-15T23:19:37.157Z,64.78
2023-02-15T23:22:07.074Z,65.18
2023-02-15T23:24:39.725Z,64.97
2023-02-15T23:27:21.903Z,62.45
2023-02-15T23:29:52.963Z,63.67
2023-02-15T23:32:23.032Z,58.25
2023-02-15T23:34:52.904Z,59.17
2023-02-15T23:37:22.770Z,62.58
2023-02-15T23:40:07.962Z,59.28
2023-02-15T23:42:38.779Z,55.55
2023-02-15T23:45:21.685Z,51.15
2023-02-15T23:48:04.830Z,57.72
2023-02-15T23:50:34.734Z,52.47
2023-02-15T23:53:04.599Z,55.08
2023-02-15T23:55:41.482Z,52.55
2023-02-15T23:58:19.139Z,56.58
